METAR Data
IDs: Format: Raw Decoded Include TAF

Data at: 2332 UTC 18 Nov 2018

KWVI 182253Z AUTO 20006KT 8SM CLR 18/07 A3004 RMK AO2 SLP170 T01780072

KSNS 182253Z 31010KT 4SM HZ CLR 15/09 A3003 RMK AO2 SLP178 T01500094

KMRY 182254Z 25003KT 5SM HZ FU CLR 16/09 A3004 RMK AO2 SLP183 T01610094

KSJC 182253Z 34006KT 3SM HZ FEW001 BKN026 OVC120 17/07 A3003 RMK AO2 SLP169 FU FEW001 FU BKN026 T01670067 $

KSFO 182256Z 02003KT 2 1/2SM HZ FU FEW029 BKN200 13/09 A3003 RMK AO2 SLP169 T01280094 $

KHAF 182320Z AUTO 24004KT 2SM HZ CLR 14/10 A3004 RMK AO2